Time;durP1;ratioP1;P1;durP2;ratioP2;P2;SDS_P1;SDS_P2;PMS_P1;PMS_P2;Temp;Humidity;BMP_temperature;BMP_pressure;BME280_temperature;BME280_humidity;BME280_pressure;Samples;Min_cycle;Max_cycle;Signal;HPM_P1;HPM_P2
2022/05/13 00:02:43;;;;;;;14.38;4.63;;;15.90;93.90;;;;;;4988192;28;20361;-73
2022/05/13 00:05:32;;;;;;;9.10;4.10;;;15.90;93.80;;;;;;4995652;28;20222;-73
2022/05/13 00:08:21;;;;;;;11.50;4.00;;;15.90;93.70;;;;;;4993798;28;20233;-73
2022/05/13 00:11:10;;;;;;;7.95;4.07;;;15.80;93.80;;;;;;4994308;28;20218;-74
2022/05/13 00:13:59;;;;;;;7.75;3.55;;;15.80;94.00;;;;;;4991763;28;20569;-74
2022/05/13 00:16:49;;;;;;;11.45;4.03;;;15.70;94.20;;;;;;4989222;28;20245;-73
2022/05/13 00:19:38;;;;;;;11.65;4.28;;;15.70;94.60;;;;;;5004440;28;20357;-73
2022/05/13 00:22:28;;;;;;;9.13;4.53;;;15.70;94.50;;;;;;4991442;28;20255;-74
2022/05/13 00:25:20;;;;;;;10.45;3.97;;;15.80;94.30;;;;;;4999015;28;20316;-76
2022/05/13 00:28:10;;;;;;;12.60;3.72;;;15.60;95.00;;;;;;4994277;28;20226;-75
2022/05/13 00:31:01;;;;;;;7.43;4.05;;;15.70;94.60;;;;;;4980832;28;20222;-76
2022/05/13 00:33:53;;;;;;;8.43;4.10;;;15.70;94.60;;;;;;4996692;28;20248;-75
2022/05/13 00:36:42;;;;;;;11.65;4.13;;;15.70;94.80;;;;;;4984710;28;20913;-74
2022/05/13 00:39:31;;;;;;;11.15;4.25;;;15.60;95.00;;;;;;5002735;28;20226;-73
2022/05/13 00:42:22;;;;;;;7.13;3.58;;;15.60;95.10;;;;;;5012205;28;20236;-72
2022/05/13 00:45:13;;;;;;;11.57;3.95;;;15.60;94.70;;;;;;4991739;28;20226;-73
2022/05/13 00:48:02;;;;;;;8.98;3.35;;;15.60;95.00;;;;;;4980348;28;20488;-72
2022/05/13 00:50:56;;;;;;;7.65;3.38;;;15.60;94.90;;;;;;5020355;28;20761;-74
2022/05/13 00:53:46;;;;;;;8.73;3.80;;;15.50;95.20;;;;;;5006512;28;20218;-73
2022/05/13 00:56:35;;;;;;;6.90;4.20;;;15.40;95.40;;;;;;5008878;28;20229;-75
2022/05/13 00:59:27;;;;;;;10.32;3.50;;;15.40;95.30;;;;;;5011151;28;20233;-73
2022/05/13 01:02:16;;;;;;;8.20;3.92;;;15.50;95.40;;;;;;4995225;28;20218;-73
2022/05/13 01:05:06;;;;;;;8.05;3.75;;;15.50;95.40;;;;;;4999596;28;20246;-73
2022/05/13 01:07:56;;;;;;;7.30;3.53;;;15.40;95.30;;;;;;4978764;28;20272;-72
2022/05/13 01:10:47;;;;;;;7.38;3.85;;;15.40;95.80;;;;;;4989597;28;20218;-71
2022/05/13 01:13:37;;;;;;;12.77;4.07;;;15.40;96.00;;;;;;4993681;28;20218;-72
2022/05/13 01:16:26;;;;;;;9.10;3.47;;;15.30;96.30;;;;;;5009593;28;20960;-72
2022/05/13 01:19:14;;;;;;;5.57;3.67;;;15.30;96.20;;;;;;5014091;28;20232;-69
2022/05/13 01:22:15;;;;;;;6.60;3.55;;;15.30;95.90;;;;;;4980801;28;20230;-71
2022/05/13 01:25:04;;;;;;;5.85;3.35;;;15.40;95.50;;;;;;5001402;28;20230;-72
2022/05/13 01:27:55;;;;;;;8.75;4.00;;;15.40;95.70;;;;;;4990421;28;20244;-73
2022/05/13 01:30:48;;;;;;;8.20;3.63;;;15.40;96.30;;;;;;5000236;28;20699;-73
2022/05/13 01:33:38;;;;;;;7.93;4.00;;;15.30;96.50;;;;;;4992112;28;20272;-72
2022/05/13 01:36:27;;;;;;;9.13;3.85;;;15.10;97.50;;;;;;4993778;28;20241;-73
2022/05/13 01:39:17;;;;;;;6.40;3.35;;;15.20;97.50;;;;;;4997061;28;21200;-71
2022/05/13 01:42:08;;;;;;;9.43;3.47;;;15.30;97.00;;;;;;5011491;28;20799;-73
2022/05/13 01:44:57;;;;;;;8.73;3.55;;;15.20;96.70;;;;;;5007441;28;20225;-72
2022/05/13 01:47:46;;;;;;;7.95;3.22;;;15.30;96.40;;;;;;4994289;28;20305;-70
2022/05/13 01:50:35;;;;;;;7.88;3.53;;;15.20;96.80;;;;;;5018605;28;20237;-72
2022/05/13 01:53:25;;;;;;;6.68;3.30;;;15.10;96.80;;;;;;5011259;28;20312;-72
2022/05/13 01:56:15;;;;;;;4.95;3.20;;;15.20;96.70;;;;;;5000921;28;20628;-72
2022/05/13 01:59:04;;;;;;;9.40;3.75;;;15.30;96.20;;;;;;4995493;28;20779;-73
2022/05/13 02:01:52;;;;;;;11.00;3.65;;;15.30;96.10;;;;;;5011253;28;20252;-72
2022/05/13 02:04:41;;;;;;;14.38;3.53;;;15.30;95.90;;;;;;5021698;28;20224;-74
2022/05/13 02:07:30;;;;;;;7.70;3.67;;;15.20;95.70;;;;;;5014637;28;20296;-72
2022/05/13 02:10:20;;;;;;;10.90;3.30;;;15.20;95.80;;;;;;5018882;28;20218;-73
2022/05/13 02:13:10;;;;;;;10.07;3.15;;;15.10;96.40;;;;;;4993243;28;20234;-74
2022/05/13 02:15:59;;;;;;;5.20;3.25;;;15.20;96.20;;;;;;4995721;28;20225;-74
2022/05/13 02:18:48;;;;;;;7.15;3.30;;;15.30;95.60;;;;;;5013563;28;20340;-70
2022/05/13 02:21:38;;;;;;;10.18;3.40;;;15.20;95.70;;;;;;5018235;28;20236;-73
2022/05/13 02:24:26;;;;;;;6.70;3.38;;;15.20;96.00;;;;;;5000474;28;20917;-73
2022/05/13 02:27:16;;;;;;;11.43;3.90;;;15.10;96.30;;;;;;4982112;28;20252;-72
2022/05/13 02:30:07;;;;;;;7.47;3.47;;;15.10;96.60;;;;;;5002448;28;20847;-70
2022/05/13 02:32:57;;;;;;;10.25;3.67;;;15.00;96.70;;;;;;4988760;28;20238;-72
2022/05/13 02:35:46;;;;;;;9.73;3.25;;;15.10;96.30;;;;;;5002592;28;20217;-71
2022/05/13 02:38:35;;;;;;;9.98;3.90;;;15.20;96.10;;;;;;4994680;28;20234;-71
2022/05/13 02:41:27;;;;;;;7.07;3.80;;;15.10;96.40;;;;;;4993168;28;20238;-72
2022/05/13 02:44:16;;;;;;;8.30;3.60;;;15.10;96.40;;;;;;5024355;28;20228;-72
2022/05/13 02:47:06;;;;;;;7.13;4.05;;;15.00;97.00;;;;;;5010385;28;20314;-74
2022/05/13 02:52:58;;;;;;;6.05;3.65;;;14.70;98.20;;;;;;5030400;28;20336;-71
2022/05/13 02:55:47;;;;;;;7.50;3.78;;;14.60;98.90;;;;;;5023116;28;20250;-71
2022/05/13 02:58:36;;;;;;;6.82;3.65;;;14.50;99.50;;;;;;5012522;28;20696;-72
2022/05/13 03:01:25;;;;;;;9.45;3.67;;;14.60;99.60;;;;;;4999206;28;22277;-73
2022/05/13 03:04:16;;;;;;;6.05;3.28;;;14.70;99.20;;;;;;5023222;28;20225;-71
2022/05/13 03:07:05;;;;;;;9.73;3.92;;;14.70;99.30;;;;;;5012398;28;20379;-73
2022/05/13 03:09:54;;;;;;;8.40;3.88;;;14.60;99.60;;;;;;5017800;28;20228;-74
2022/05/13 03:12:43;;;;;;;9.15;3.50;;;14.70;99.60;;;;;;5014251;28;20220;-70
2022/05/13 03:15:31;;;;;;;9.43;3.70;;;14.60;99.90;;;;;;5035130;28;20811;-74
2022/05/13 03:18:20;;;;;;;5.68;3.88;;;14.60;99.90;;;;;;5010006;28;20729;-72
2022/05/13 03:21:11;;;;;;;10.60;3.75;;;14.60;99.90;;;;;;5013836;28;20738;-74
2022/05/13 03:23:59;;;;;;;8.98;3.78;;;14.60;99.90;;;;;;5016148;28;20304;-73
2022/05/13 03:26:48;;;;;;;9.40;3.50;;;14.50;99.90;;;;;;4998276;28;20241;-72
2022/05/13 03:29:37;;;;;;;8.45;3.90;;;14.50;99.90;;;;;;5018002;28;20244;-73
2022/05/13 03:32:26;;;;;;;8.30;3.78;;;14.40;99.90;;;;;;5014850;28;20313;-71
2022/05/13 03:35:16;;;;;;;10.48;4.07;;;14.30;99.90;;;;;;4998342;28;20938;-73
2022/05/13 03:38:06;;;;;;;13.68;4.00;;;14.40;99.90;;;;;;4990327;28;20309;-71
2022/05/13 03:40:55;;;;;;;8.18;4.38;;;14.50;99.90;;;;;;5024543;28;20210;-70
2022/05/13 03:43:44;;;;;;;8.73;4.47;;;14.50;99.90;;;;;;4993670;28;20227;-73
2022/05/13 03:46:32;;;;;;;9.23;3.60;;;14.50;99.90;;;;;;4991517;28;20772;-71
2022/05/13 03:49:21;;;;;;;10.60;3.53;;;14.50;99.90;;;;;;4998613;28;20223;-71
2022/05/13 03:52:10;;;;;;;4.45;3.22;;;14.50;99.90;;;;;;4980942;28;20355;-71
2022/05/13 03:55:00;;;;;;;6.07;3.83;;;14.40;99.90;;;;;;4995111;28;20677;-73
2022/05/13 03:57:49;;;;;;;10.90;3.78;;;14.40;99.90;;;;;;4991062;28;20230;-74
2022/05/13 04:00:38;;;;;;;10.30;3.80;;;14.50;99.90;;;;;;4997929;28;20230;-74
2022/05/13 04:03:31;;;;;;;9.73;3.95;;;14.60;99.90;;;;;;4983598;28;20226;-72
2022/05/13 04:09:26;;;;;;;11.70;3.53;;;14.60;99.90;;;;;;5001945;28;20316;-72
2022/05/13 04:18:29;;;;;;;8.55;3.47;;;14.70;99.90;;;;;;4990171;28;20222;-74
2022/05/13 04:21:20;;;;;;;14.60;4.10;;;14.80;99.90;;;;;;5003159;28;20245;-74
2022/05/13 04:24:12;;;;;;;12.57;3.70;;;14.90;99.50;;;;;;4993181;28;20223;-74
2022/05/13 04:27:00;;;;;;;7.68;3.70;;;14.90;98.80;;;;;;5010314;28;20242;-73
2022/05/13 04:29:52;;;;;;;8.80;3.63;;;15.10;98.00;;;;;;4984833;28;20222;-74
2022/05/13 04:32:41;;;;;;;9.65;3.38;;;15.10;98.20;;;;;;4997587;28;20720;-72
2022/05/13 04:35:30;;;;;;;13.60;3.60;;;15.30;97.80;;;;;;5002602;28;20303;-73
2022/05/13 04:38:19;;;;;;;15.70;4.13;;;15.20;97.20;;;;;;4989079;28;20593;-72
2022/05/13 04:44:15;;;;;;;7.80;3.72;;;15.30;97.10;;;;;;5006993;28;20757;-74
2022/05/13 04:48:15;;;;;;;6.57;3.83;;;15.50;96.50;;;;;;4986815;28;20308;-75
2022/05/13 04:50:16;;;;;;;8.02;4.10;;;15.50;96.50;;;;;;5002560;28;20226;-73
2022/05/13 04:53:06;;;;;;;8.10;3.30;;;15.60;96.50;;;;;;5011998;28;20222;-74
2022/05/13 04:55:55;;;;;;;11.30;3.55;;;15.70;94.70;;;;;;4983825;28;20215;-74
2022/05/13 04:58:44;;;;;;;7.53;3.75;;;15.80;94.40;;;;;;5001267;28;20306;-75
2022/05/13 05:01:33;;;;;;;7.18;3.50;;;15.90;93.90;;;;;;4987059;28;20325;-75
2022/05/13 05:04:23;;;;;;;7.70;3.13;;;16.00;94.00;;;;;;4990886;28;20273;-74
2022/05/13 05:07:12;;;;;;;8.48;3.75;;;16.10;93.10;;;;;;4991475;28;20851;-75
2022/05/13 05:10:01;;;;;;;7.60;3.03;;;16.20;92.90;;;;;;4996266;28;20257;-73
2022/05/13 05:12:54;;;;;;;9.90;3.88;;;16.30;93.30;;;;;;5002037;28;20223;-75
2022/05/13 05:15:45;;;;;;;8.57;3.15;;;16.30;93.30;;;;;;5003954;28;20309;-75
2022/05/13 05:18:34;;;;;;;7.22;3.05;;;16.50;92.00;;;;;;5016268;28;20268;-74
2022/05/13 05:21:24;;;;;;;5.40;2.50;;;16.40;91.00;;;;;;4993448;28;20226;-74
2022/05/13 05:24:14;;;;;;;8.02;3.13;;;16.60;91.10;;;;;;5021855;28;20232;-74
2022/05/13 05:27:02;;;;;;;7.88;3.17;;;16.70;90.60;;;;;;5001995;28;20372;-75
2022/05/13 05:29:51;;;;;;;11.35;2.78;;;17.00;90.50;;;;;;5016693;28;20233;-75
2022/05/13 05:32:41;;;;;;;13.65;3.53;;;17.20;90.10;;;;;;5008516;28;20218;-75
2022/05/13 05:35:30;;;;;;;7.95;2.55;;;17.00;89.10;;;;;;4999037;28;21149;-74
2022/05/13 05:38:20;;;;;;;6.50;2.90;;;17.00;89.30;;;;;;4987198;28;20724;-74
2022/05/13 05:41:08;;;;;;;18.60;2.95;;;17.10;88.80;;;;;;4995510;28;20222;-75
2022/05/13 05:43:57;;;;;;;7.32;2.40;;;17.30;88.10;;;;;;5002026;28;20239;-76
2022/05/13 05:46:46;;;;;;;6.60;2.42;;;17.30;86.50;;;;;;4999557;28;20230;-75
2022/05/13 05:49:35;;;;;;;7.20;3.05;;;17.80;85.00;;;;;;4998297;28;20236;-75
2022/05/13 05:52:24;;;;;;;6.00;2.88;;;18.90;81.80;;;;;;5010116;28;20276;-73
2022/05/13 05:58:21;;;;;;;5.72;2.65;;;19.80;77.20;;;;;;4998701;28;20264;-76
2022/05/13 06:01:10;;;;;;;6.30;3.10;;;19.60;79.20;;;;;;5001618;28;20503;-77
2022/05/13 06:03:59;;;;;;;7.13;3.53;;;20.40;74.80;;;;;;4988457;28;20237;-74
2022/05/13 06:06:47;;;;;;;37.25;5.32;;;20.60;71.30;;;;;;4998604;28;20218;-73
2022/05/13 06:09:37;;;;;;;6.25;2.30;;;20.20;72.80;;;;;;4999968;28;20806;-75
2022/05/13 06:12:28;;;;;;;33.78;3.53;;;19.60;72.70;;;;;;4998602;28;20229;-74
2022/05/13 06:15:17;;;;;;;5.95;2.88;;;19.30;74.30;;;;;;5004291;28;20970;-74
2022/05/13 06:18:06;;;;;;;9.43;2.38;;;19.20;74.10;;;;;;4997260;28;20229;-76
2022/05/13 06:20:55;;;;;;;7.80;2.28;;;19.30;75.10;;;;;;4999679;28;20226;-74
2022/05/13 06:23:44;;;;;;;8.18;2.15;;;19.10;75.50;;;;;;5026408;28;20244;-74
2022/05/13 06:26:33;;;;;;;7.35;2.10;;;18.90;74.70;;;;;;5000013;28;20230;-74
2022/05/13 06:29:25;;;;;;;7.00;2.03;;;18.90;74.60;;;;;;4999328;28;20227;-74
2022/05/13 06:32:14;;;;;;;5.22;2.10;;;19.00;75.60;;;;;;5017038;28;20744;-74
2022/05/13 06:35:03;;;;;;;6.10;1.92;;;19.10;75.00;;;;;;4998908;28;20743;-73
2022/05/13 06:37:52;;;;;;;6.20;1.63;;;19.30;74.10;;;;;;5000367;28;20272;-74
2022/05/13 06:40:41;;;;;;;5.35;1.67;;;19.20;73.10;;;;;;4996827;28;20215;-73
2022/05/13 06:43:29;;;;;;;6.60;1.73;;;19.40;73.20;;;;;;4994012;28;20265;-76
2022/05/13 06:46:20;;;;;;;6.18;2.13;;;19.40;73.70;;;;;;5016607;28;20933;-77
2022/05/13 06:49:12;;;;;;;3.78;1.50;;;19.60;73.00;;;;;;5002187;28;20266;-76
2022/05/13 06:52:02;;;;;;;4.50;1.70;;;19.50;72.70;;;;;;5038117;28;20232;-78
2022/05/13 06:55:13;;;;;;;4.60;1.33;;;19.70;73.10;;;;;;5005653;28;20224;-80
2022/05/13 06:58:02;;;;;;;4.85;1.30;;;19.60;70.80;;;;;;5019209;28;20449;-76
2022/05/13 07:00:51;;;;;;;3.17;1.30;;;19.50;71.30;;;;;;5021850;28;20338;-75
2022/05/13 07:03:41;;;;;;;3.72;1.40;;;19.80;70.50;;;;;;5007728;28;20236;-76
2022/05/13 07:06:30;;;;;;;4.50;1.65;;;20.00;70.10;;;;;;5007104;28;20313;-77
2022/05/13 07:09:19;;;;;;;4.13;1.50;;;20.20;69.80;;;;;;5002609;28;20226;-77
2022/05/13 07:12:09;;;;;;;5.20;1.35;;;20.30;70.40;;;;;;5018668;28;20257;-78
2022/05/13 07:14:59;;;;;;;5.22;1.40;;;20.40;69.10;;;;;;5010443;28;21709;-76
2022/05/13 07:17:48;;;;;;;3.30;1.80;;;20.70;69.00;;;;;;5007103;28;20214;-76
2022/05/13 07:20:39;;;;;;;3.40;1.38;;;20.90;67.40;;;;;;5030571;28;20221;-77
2022/05/13 07:23:27;;;;;;;3.50;1.10;;;21.00;65.90;;;;;;5011001;28;20227;-76
2022/05/13 07:26:16;;;;;;;3.67;1.48;;;21.00;63.80;;;;;;4982435;28;20227;-76
2022/05/13 07:29:06;;;;;;;3.38;1.40;;;21.10;64.00;;;;;;5002854;28;20965;-77
2022/05/13 07:31:54;;;;;;;5.57;1.52;;;21.50;63.50;;;;;;4991508;28;20220;-77
2022/05/13 07:34:52;;;;;;;6.45;1.85;;;21.60;62.90;;;;;;4987953;28;20225;-76
2022/05/13 07:37:42;;;;;;;4.82;1.42;;;21.90;61.90;;;;;;4989057;28;20280;-78
2022/05/13 07:43:37;;;;;;;3.38;1.52;;;22.70;61.90;;;;;;5020276;28;20272;-77
2022/05/13 07:46:26;;;;;;;3.33;1.42;;;24.20;57.70;;;;;;4989539;28;20221;-77
2022/05/13 07:49:15;;;;;;;5.13;1.58;;;25.70;55.80;;;;;;5010753;28;20244;-77
2022/05/13 07:52:05;;;;;;;3.08;1.50;;;25.60;54.60;;;;;;5005774;28;20233;-76
2022/05/13 07:54:55;;;;;;;4.03;1.70;;;25.80;53.90;;;;;;5010228;28;20225;-76
2022/05/13 07:57:46;;;;;;;4.50;1.45;;;27.00;52.90;;;;;;5023659;28;20221;-77
2022/05/13 08:00:38;;;;;;;4.80;1.45;;;28.40;51.60;;;;;;5041300;28;20253;-76
2022/05/13 08:03:31;;;;;;;5.78;1.50;;;28.70;48.80;;;;;;5034772;28;20217;-77
2022/05/13 08:06:20;;;;;;;4.95;1.48;;;29.50;48.20;;;;;;5018089;28;20743;-77
2022/05/13 08:09:08;;;;;;;5.53;1.30;;;29.70;47.60;;;;;;5021908;28;20320;-77
2022/05/13 08:11:59;;;;;;;3.03;1.75;;;30.80;46.00;;;;;;5002235;28;20275;-76
2022/05/13 08:14:48;;;;;;;3.15;1.60;;;31.90;45.00;;;;;;5003257;28;20705;-77
2022/05/13 08:17:37;;;;;;;3.65;1.40;;;30.10;44.70;;;;;;5004158;28;20751;-78
2022/05/13 08:20:26;;;;;;;7.00;1.55;;;29.70;44.80;;;;;;5001807;28;20295;-74
2022/05/13 08:23:16;;;;;;;4.38;1.70;;;30.80;44.00;;;;;;5007019;28;20222;-77
2022/05/13 08:26:11;;;;;;;1.77;1.30;;;33.00;42.70;;;;;;4997770;28;20251;-78
2022/05/13 08:29:04;;;;;;;4.18;1.60;;;33.60;40.80;;;;;;4987963;28;20234;-78
2022/05/13 08:31:52;;;;;;;3.88;1.52;;;33.80;41.50;;;;;;4988425;28;20729;-77
2022/05/13 08:34:41;;;;;;;3.10;1.50;;;33.80;42.30;;;;;;4988152;28;20307;-78
2022/05/13 08:37:53;;;;;;;4.93;1.50;;;34.30;41.00;;;;;;4984971;28;20244;-78
2022/05/13 08:41:01;;;;;;;6.55;1.65;;;35.00;39.50;;;;;;5005168;28;20308;-78
2022/05/13 08:43:53;;;;;;;3.70;1.48;;;35.70;39.50;;;;;;5005880;28;20224;-78
2022/05/13 08:46:50;;;;;;;3.22;1.50;;;35.60;39.00;;;;;;5019509;28;20672;-78
2022/05/13 08:50:06;;;;;;;5.07;1.58;;;35.90;39.10;;;;;;5009174;28;21232;-78
2022/05/13 08:53:08;;;;;;;4.95;1.42;;;29.10;42.20;;;;;;5033561;28;20217;-77
2022/05/13 08:56:03;;;;;;;4.03;1.60;;;26.40;46.70;;;;;;5023453;28;20312;-78
2022/05/13 08:58:58;;;;;;;4.88;1.60;;;31.40;44.80;;;;;;5034022;28;20234;-77
2022/05/13 09:01:53;;;;;;;6.05;1.58;;;33.40;41.20;;;;;;5025293;28;20298;-77
2022/05/13 09:04:47;;;;;;;3.03;1.33;;;36.20;37.50;;;;;;5006430;28;20217;-77
2022/05/13 09:07:36;;;;;;;2.50;1.48;;;37.00;36.60;;;;;;5015845;28;20348;-77
2022/05/13 09:10:25;;;;;;;3.65;1.60;;;33.50;38.20;;;;;;5007888;28;20217;-77
2022/05/13 09:13:23;;;;;;;4.22;1.70;;;35.60;38.80;;;;;;5007662;28;20224;-77
2022/05/13 09:16:14;;;;;;;4.20;1.52;;;36.20;39.20;;;;;;5023674;28;20228;-77
2022/05/13 09:19:05;;;;;;;8.75;1.50;;;37.30;36.90;;;;;;5009831;28;20221;-78
2022/05/13 09:21:56;;;;;;;4.22;1.50;;;36.40;37.40;;;;;;5008589;28;20229;-78
2022/05/13 09:24:45;;;;;;;4.15;1.52;;;35.30;36.80;;;;;;5023062;28;20222;-77
2022/05/13 09:28:00;;;;;;;6.47;1.40;;;30.20;40.50;;;;;;5028228;28;20266;-77
2022/05/13 09:30:51;;;;;;;3.40;1.40;;;28.70;43.30;;;;;;5040248;28;20386;-78
2022/05/13 09:33:41;;;;;;;3.08;1.58;;;30.60;43.70;;;;;;5013014;28;20748;-78
2022/05/13 09:36:35;;;;;;;4.03;1.30;;;32.90;41.20;;;;;;5013361;28;20794;-78
2022/05/13 09:39:26;;;;;;;5.95;1.30;;;33.90;39.50;;;;;;5014329;28;20220;-79
2022/05/13 09:42:36;;;;;;;4.63;1.77;;;34.00;38.10;;;;;;5005685;28;20833;-78
2022/05/13 09:45:27;;;;;;;4.30;1.50;;;34.10;38.90;;;;;;5003834;28;20292;-79
2022/05/13 09:48:18;;;;;;;3.42;1.23;;;30.60;40.10;;;;;;5016665;28;21000;-79
2022/05/13 09:51:32;;;;;;;4.63;1.40;;;30.60;41.40;;;;;;5001277;28;20311;-79
2022/05/13 09:54:27;;;;;;;4.70;1.50;;;33.60;39.80;;;;;;4997335;28;20320;-77
2022/05/13 09:57:24;;;;;;;3.92;1.50;;;35.10;38.20;;;;;;4999360;28;20222;-78
2022/05/13 10:00:17;;;;;;;5.82;1.60;;;35.40;36.50;;;;;;4990463;28;20228;-77
2022/05/13 10:03:17;;;;;;;2.95;1.30;;;34.50;37.90;;;;;;5001440;28;20248;-77
2022/05/13 10:06:19;;;;;;;5.55;1.63;;;32.90;38.40;;;;;;5017200;28;20258;-78
2022/05/13 10:15:46;;;;;;;2.55;1.40;;;30.20;40.50;;;;;;5024086;28;20277;-76
2022/05/13 10:18:37;;;;;;;3.72;1.40;;;30.40;41.50;;;;;;5012964;28;20231;-78
2022/05/13 10:21:30;;;;;;;4.32;1.40;;;33.10;39.00;;;;;;5011765;28;20221;-78
2022/05/13 10:24:32;;;;;;;4.97;1.50;;;34.20;38.30;;;;;;5019629;28;20630;-79
2022/05/13 10:27:31;;;;;;;2.30;1.48;;;35.10;36.40;;;;;;4999461;28;20225;-78
2022/05/13 10:30:27;;;;;;;3.20;1.60;;;34.90;35.90;;;;;;5005097;28;20615;-77
2022/05/13 10:33:23;;;;;;;7.97;1.52;;;35.00;36.50;;;;;;4991192;28;20296;-77
2022/05/13 10:36:18;;;;;;;5.30;1.65;;;35.10;36.40;;;;;;5003293;28;20229;-78
2022/05/13 10:39:11;;;;;;;4.15;1.50;;;36.20;35.20;;;;;;4991603;28;20286;-78
2022/05/13 10:42:05;;;;;;;4.95;1.60;;;33.00;36.50;;;;;;5020000;28;20217;-79
2022/05/13 10:44:59;;;;;;;5.22;1.48;;;34.80;37.50;;;;;;5018601;28;20224;-77
2022/05/13 10:47:54;;;;;;;6.93;2.05;;;32.90;37.30;;;;;;5010442;28;20236;-76
2022/05/13 10:50:49;;;;;;;4.72;1.52;;;35.60;37.00;;;;;;5015891;28;20271;-76
2022/05/13 10:54:03;;;;;;;7.65;1.50;;;36.50;36.20;;;;;;5018489;28;20673;-76
2022/05/13 10:56:59;;;;;;;4.25;1.70;;;34.00;35.10;;;;;;4999885;28;20401;-75
2022/05/13 11:00:02;;;;;;;4.47;1.45;;;31.70;37.30;;;;;;4979294;28;20308;-76
2022/05/13 11:03:30;;;;;;;5.53;1.60;;;33.10;39.20;;;;;;5012028;28;20368;-76
2022/05/13 11:06:30;;;;;;;8.38;1.67;;;35.80;35.70;;;;;;5005639;28;20247;-75
2022/05/13 11:09:33;;;;;;;4.50;1.83;;;36.20;36.20;;;;;;5016164;28;20688;-75
2022/05/13 11:12:31;;;;;;;4.05;1.50;;;36.90;35.40;;;;;;5004125;28;20232;-76
2022/05/13 11:15:27;;;;;;;6.32;1.65;;;38.00;34.50;;;;;;4983465;28;20347;-75
2022/05/13 11:18:47;;;;;;;2.58;1.65;;;36.00;33.60;;;;;;4997656;28;20232;-76
2022/05/13 11:21:44;;;;;;;3.20;1.45;;;33.20;34.90;;;;;;5002188;28;20612;-77
2022/05/13 11:28:17;;;;;;;3.60;1.60;;;34.40;37.30;;;;;;4998750;28;20248;-76
2022/05/13 11:31:18;;;;;;;5.75;1.73;;;32.40;37.70;;;;;;5019534;28;20236;-76
2022/05/13 11:34:27;;;;;;;5.68;1.73;;;33.50;36.00;;;;;;5017642;28;20263;-75
2022/05/13 11:37:18;;;;;;;6.18;1.73;;;33.30;38.20;;;;;;5031266;28;20228;-75
2022/05/13 11:40:27;;;;;;;4.28;1.65;;;32.00;37.80;;;;;;5014011;28;20303;-76
2022/05/13 11:43:26;;;;;;;4.68;1.70;;;34.70;37.10;;;;;;5005833;28;20919;-75
2022/05/13 11:46:44;;;;;;;4.35;1.70;;;35.30;36.50;;;;;;5015181;28;20283;-76
2022/05/13 11:49:37;;;;;;;3.63;1.73;;;30.60;38.00;;;;;;5005118;28;20240;-75
2022/05/13 11:52:48;;;;;;;5.25;1.70;;;29.20;40.60;;;;;;5015830;28;20295;-75
2022/05/13 11:55:55;;;;;;;6.05;1.80;;;29.00;40.90;;;;;;5010455;28;20288;-73
2022/05/13 11:58:50;;;;;;;6.63;1.83;;;27.60;42.70;;;;;;5003803;28;20217;-76
2022/05/13 12:01:53;;;;;;;4.75;2.10;;;27.20;43.90;;;;;;4994992;28;20338;-76
2022/05/13 12:05:12;;;;;;;7.13;1.98;;;28.30;44.40;;;;;;4980143;28;20768;-74
2022/05/13 12:08:21;;;;;;;4.13;1.67;;;29.40;42.30;;;;;;4995470;28;20272;-77
2022/05/13 12:11:47;;;;;;;4.43;1.98;;;28.30;43.30;;;;;;4989521;28;20237;-74
2022/05/13 12:14:46;;;;;;;4.55;1.73;;;27.00;44.10;;;;;;4990031;28;20220;-75
2022/05/13 12:17:42;;;;;;;7.13;1.73;;;27.80;45.20;;;;;;5020554;28;20326;-73
2022/05/13 12:20:41;;;;;;;4.03;1.98;;;27.60;44.10;;;;;;5023210;28;20225;-72
2022/05/13 12:23:37;;;;;;;5.88;2.10;;;27.40;44.00;;;;;;5031843;28;20382;-74
2022/05/13 12:27:07;;;;;;;4.13;1.80;;;27.80;45.30;;;;;;5000306;28;20252;-75
2022/05/13 12:30:03;;;;;;;5.07;1.85;;;30.50;42.20;;;;;;4995613;28;20306;-75
2022/05/13 12:32:52;;;;;;;6.15;2.00;;;28.90;43.00;;;;;;4987759;28;20225;-75
2022/05/13 12:39:07;;;;;;;4.70;1.83;;;27.50;44.00;;;;;;5008202;28;20241;-75
2022/05/13 12:42:09;;;;;;;3.83;2.13;;;27.20;44.60;;;;;;4999351;28;20802;-73
2022/05/13 12:45:00;;;;;;;5.22;2.30;;;26.90;45.00;;;;;;4994311;28;20231;-74
2022/05/13 12:48:11;;;;;;;4.95;2.15;;;26.90;45.50;;;;;;5020790;28;20228;-74
2022/05/13 12:51:21;;;;;;;4.85;1.98;;;26.40;46.50;;;;;;5021666;28;20359;-74
2022/05/13 12:54:11;;;;;;;4.70;2.03;;;26.10;47.50;;;;;;5001264;28;20226;-73
2022/05/13 12:57:11;;;;;;;5.38;2.22;;;26.30;46.70;;;;;;4999975;28;20230;-74
2022/05/13 13:00:24;;;;;;;6.40;2.08;;;26.10;47.30;;;;;;4988734;28;20313;-75
2022/05/13 13:03:14;;;;;;;7.82;2.45;;;26.50;47.00;;;;;;5002432;28;20229;-75
2022/05/13 13:06:11;;;;;;;5.50;2.33;;;26.60;47.20;;;;;;5007118;28;20230;-75
2022/05/13 13:09:02;;;;;;;6.78;2.20;;;26.20;47.30;;;;;;5010416;28;20341;-75
2022/05/13 13:11:57;;;;;;;5.82;2.20;;;26.00;47.50;;;;;;5036015;28;20230;-74
2022/05/13 13:15:09;;;;;;;5.55;2.33;;;25.40;47.50;;;;;;5001843;28;20229;-75
2022/05/13 13:18:00;;;;;;;4.78;2.20;;;25.70;48.00;;;;;;5020301;28;20226;-75
2022/05/13 13:20:55;;;;;;;6.88;2.10;;;25.10;48.80;;;;;;5011423;28;20217;-74
2022/05/13 13:23:49;;;;;;;7.75;2.15;;;24.80;48.70;;;;;;5011043;28;20719;-75
2022/05/13 13:26:41;;;;;;;5.03;2.30;;;24.70;49.20;;;;;;5026445;28;20244;-74
2022/05/13 13:29:34;;;;;;;4.68;2.20;;;24.70;49.30;;;;;;5004988;28;20222;-74
2022/05/13 13:32:24;;;;;;;4.75;2.10;;;24.40;49.50;;;;;;5001077;28;20578;-73
2022/05/13 13:35:13;;;;;;;4.25;2.22;;;24.90;49.30;;;;;;4989266;28;20308;-73
2022/05/13 13:38:05;;;;;;;3.92;2.28;;;25.00;49.00;;;;;;4998957;28;20746;-73
2022/05/13 13:40:54;;;;;;;7.07;2.20;;;24.40;50.60;;;;;;5004238;28;20618;-74
2022/05/13 13:43:46;;;;;;;9.38;2.47;;;24.60;49.90;;;;;;5003170;28;20297;-75
2022/05/13 13:46:37;;;;;;;9.73;2.50;;;24.80;49.90;;;;;;4995441;28;20695;-75
2022/05/13 13:49:29;;;;;;;7.95;2.40;;;24.80;50.00;;;;;;4991138;28;20230;-75
2022/05/13 13:52:23;;;;;;;3.28;2.35;;;24.70;49.50;;;;;;4989812;28;20708;-75
2022/05/13 13:55:20;;;;;;;8.98;2.70;;;24.80;49.60;;;;;;4988236;28;20233;-74
2022/05/13 13:58:23;;;;;;;3.20;2.22;;;24.90;49.70;;;;;;5016626;28;20222;-74
2022/05/13 14:01:17;;;;;;;8.10;2.65;;;24.40;49.90;;;;;;5001429;28;20660;-74
2022/05/13 14:04:13;;;;;;;6.25;2.90;;;24.90;49.80;;;;;;5001550;28;20703;-74
2022/05/13 14:07:07;;;;;;;7.15;2.95;;;24.80;50.20;;;;;;5001589;28;20611;-74
2022/05/13 14:09:58;;;;;;;12.48;2.67;;;24.80;49.50;;;;;;5003610;28;20225;-73
2022/05/13 14:12:54;;;;;;;8.32;2.50;;;24.70;49.90;;;;;;5001177;28;20379;-74
2022/05/13 14:15:46;;;;;;;5.53;2.47;;;24.90;49.80;;;;;;4989939;28;20305;-74
2022/05/13 14:18:37;;;;;;;7.32;2.58;;;24.90;49.50;;;;;;4990211;28;20214;-74
2022/05/13 14:21:30;;;;;;;9.90;2.72;;;24.90;49.30;;;;;;5007229;28;20315;-74
2022/05/13 14:24:32;;;;;;;4.55;2.80;;;24.60;49.50;;;;;;4987362;28;20218;-73
2022/05/13 14:27:23;;;;;;;7.55;2.30;;;24.60;49.60;;;;;;5001616;28;20218;-74
2022/05/13 14:30:14;;;;;;;7.65;2.60;;;24.60;49.50;;;;;;5002604;28;20230;-74
2022/05/13 14:33:03;;;;;;;2.72;2.15;;;24.70;49.20;;;;;;4999694;28;20222;-73
2022/05/13 14:35:55;;;;;;;6.10;2.20;;;24.70;49.40;;;;;;5003383;28;20293;-74
2022/05/13 14:41:58;;;;;;;6.40;2.60;;;24.40;50.20;;;;;;4997033;28;20296;-75
2022/05/13 14:44:50;;;;;;;6.88;2.70;;;24.50;50.50;;;;;;4999897;28;20214;-74
2022/05/13 14:47:40;;;;;;;5.68;2.40;;;24.30;51.00;;;;;;5002905;28;20578;-76
2022/05/13 14:50:35;;;;;;;5.57;2.55;;;24.40;50.70;;;;;;5001981;28;20218;-75
2022/05/13 14:53:26;;;;;;;5.40;2.20;;;24.00;51.20;;;;;;5009231;28;20253;-76
2022/05/13 14:56:17;;;;;;;5.88;2.40;;;24.10;51.20;;;;;;5023676;28;20334;-75
2022/05/13 14:59:06;;;;;;;7.00;2.40;;;24.00;51.10;;;;;;5023471;28;20225;-75
2022/05/13 15:01:55;;;;;;;5.15;2.25;;;24.10;51.00;;;;;;5022789;28;20296;-75
2022/05/13 15:04:53;;;;;;;8.68;2.60;;;23.90;51.20;;;;;;5008845;28;20291;-75
2022/05/13 15:07:43;;;;;;;8.25;2.50;;;23.70;52.50;;;;;;5013994;28;20217;-76
2022/05/13 15:10:34;;;;;;;6.50;2.30;;;24.00;51.20;;;;;;5012539;28;20720;-74
2022/05/13 15:13:25;;;;;;;6.07;2.90;;;23.90;51.20;;;;;;5020244;28;20240;-76
2022/05/13 15:16:20;;;;;;;5.55;2.28;;;24.00;50.90;;;;;;4989088;28;20248;-74
2022/05/13 15:19:24;;;;;;;5.55;2.10;;;23.80;51.30;;;;;;5007367;28;20226;-74
2022/05/13 15:22:16;;;;;;;5.07;2.30;;;23.80;51.50;;;;;;5003771;28;20228;-75
2022/05/13 15:25:05;;;;;;;8.80;2.25;;;23.90;51.50;;;;;;4997082;28;20243;-75
2022/05/13 15:27:56;;;;;;;5.28;2.42;;;23.90;51.90;;;;;;4998785;28;20448;-74
2022/05/13 15:30:46;;;;;;;4.63;2.20;;;24.00;51.90;;;;;;4986562;28;20225;-75
2022/05/13 15:33:35;;;;;;;5.25;2.38;;;23.40;52.20;;;;;;5002958;28;20234;-75
2022/05/13 15:36:26;;;;;;;7.35;2.70;;;23.30;52.20;;;;;;5034257;28;20627;-78
2022/05/13 15:39:17;;;;;;;10.73;2.70;;;23.30;53.10;;;;;;5038947;28;20238;-75